sensor_id;sensor_type;location;lat;lon;timestamp;pressure;altitude;pressure_sealevel;temperature;humidity
68145;BME280;55400;51.824;-0.196;2023-02-12T00:02:09;102803.50000000001;;;7.67;69.62
68145;BME280;55400;51.824;-0.196;2023-02-12T00:06:09;102811.28000000001;;;7.66;69.70
68145;BME280;55400;51.824;-0.196;2023-02-12T00:10:09;102816.48;;;7.64;69.80
68145;BME280;55400;51.824;-0.196;2023-02-12T00:14:09;102803.72;;;7.62;69.99
68145;BME280;55400;51.824;-0.196;2023-02-12T00:18:09;102813.84000000001;;;7.64;69.81
68145;BME280;55400;51.824;-0.196;2023-02-12T00:22:09;102808.17;;;7.61;69.82
68145;BME280;55400;51.824;-0.196;2023-02-12T00:26:10;102808.17;;;7.59;70.03
68145;BME280;55400;51.824;-0.196;2023-02-12T00:30:11;102811.87999999999;;;7.58;70.04
68145;BME280;55400;51.824;-0.196;2023-02-12T00:34:09;102802.66999999998;;;7.56;70.05
68145;BME280;55400;51.824;-0.196;2023-02-12T00:38:09;102801.20999999999;;;7.55;70.19
68145;BME280;55400;51.824;-0.196;2023-02-12T00:42:09;102801.20999999999;;;7.53;70.38
68145;BME280;55400;51.824;-0.196;2023-02-12T00:46:09;102794.08;;;7.52;70.66
68145;BME280;55400;51.824;-0.196;2023-02-12T00:50:09;102794.08;;;7.50;70.66
68145;BME280;55400;51.824;-0.196;2023-02-12T00:54:09;102798.47;;;7.49;70.77
68145;BME280;55400;51.824;-0.196;2023-02-12T00:58:10;102799.93;;;7.48;70.82
68145;BME280;55400;51.824;-0.196;2023-02-12T01:02:09;102796.56;;;7.47;70.85
68145;BME280;55400;51.824;-0.196;2023-02-12T01:06:09;102801.73;;;7.48;70.87
68145;BME280;55400;51.824;-0.196;2023-02-12T01:14:09;102809.13;;;7.47;70.87
68145;BME280;55400;51.824;-0.196;2023-02-12T01:30:10;102803.20999999999;;;7.46;70.66
68145;BME280;55400;51.824;-0.196;2023-02-12T01:38:09;102801.53;;;7.44;70.60
68145;BME280;55400;51.824;-0.196;2023-02-12T01:46:11;102794.19;;;7.45;70.51
68145;BME280;55400;51.824;-0.196;2023-02-12T01:50:10;102791.39;;;7.46;70.25
68145;BME280;55400;51.824;-0.196;2023-02-12T01:54:10;102792.46;;;7.47;70.40
68145;BME280;55400;51.824;-0.196;2023-02-12T01:58:09;102792.46;;;7.46;70.44
68145;BME280;55400;51.824;-0.196;2023-02-12T02:02:10;102797.81;;;7.44;70.15
68145;BME280;55400;51.824;-0.196;2023-02-12T02:14:10;102812.51;;;7.43;70.21
68145;BME280;55400;51.824;-0.196;2023-02-12T02:18:10;102812.51;;;7.42;70.21
68145;BME280;55400;51.824;-0.196;2023-02-12T02:22:14;102805.18;;;7.43;70.14
68145;BME280;55400;51.824;-0.196;2023-02-12T02:26:16;102805.18;;;7.44;70.18
68145;BME280;55400;51.824;-0.196;2023-02-12T02:38:15;102805.81999999999;;;7.45;70.18
68145;BME280;55400;51.824;-0.196;2023-02-12T02:42:12;102802.98;;;7.44;69.88
68145;BME280;55400;51.824;-0.196;2023-02-12T02:46:10;102800.04;;;7.42;70.06
68145;BME280;55400;51.824;-0.196;2023-02-12T02:50:11;102800.04;;;7.40;69.99
68145;BME280;55400;51.824;-0.196;2023-02-12T02:58:11;102795.72;;;7.38;70.36
68145;BME280;55400;51.824;-0.196;2023-02-12T03:02:11;102788.59999999999;;;7.37;70.34
68145;BME280;55400;51.824;-0.196;2023-02-12T03:10:11;102789.7;;;7.36;70.46
68145;BME280;55400;51.824;-0.196;2023-02-12T03:18:11;102785.58;;;7.35;70.28
68145;BME280;55400;51.824;-0.196;2023-02-12T03:46:12;102781.98;;;7.34;69.97
68145;BME280;55400;51.824;-0.196;2023-02-12T03:50:11;102779.79000000001;;;7.32;69.98
68145;BME280;55400;51.824;-0.196;2023-02-12T03:58:11;102777.12;;;7.34;69.63
68145;BME280;55400;51.824;-0.196;2023-02-12T04:02:10;102778.69;;;7.36;69.32
68145;BME280;55400;51.824;-0.196;2023-02-12T04:14:12;102789.03;;;7.35;69.92
68145;BME280;55400;51.824;-0.196;2023-02-12T04:22:13;102790.12;;;7.34;70.00
68145;BME280;55400;51.824;-0.196;2023-02-12T04:26:13;102793.57;;;7.32;70.01
68145;BME280;55400;51.824;-0.196;2023-02-12T04:30:11;102793.74;;;7.31;70.08
68145;BME280;55400;51.824;-0.196;2023-02-12T04:38:12;102795.03;;;7.28;70.27
68145;BME280;55400;51.824;-0.196;2023-02-12T04:42:10;102795.03;;;7.26;70.23
68145;BME280;55400;51.824;-0.196;2023-02-12T04:46:10;102789.28000000001;;;7.25;70.34
68145;BME280;55400;51.824;-0.196;2023-02-12T04:50:10;102791.64000000001;;;7.24;70.34
68145;BME280;55400;51.824;-0.196;2023-02-12T05:02:10;102798.20999999999;;;7.23;70.39
68145;BME280;55400;51.824;-0.196;2023-02-12T05:06:10;102795.02;;;7.20;70.43
68145;BME280;55400;51.824;-0.196;2023-02-12T05:14:10;102790.94;;;7.19;70.59
68145;BME280;55400;51.824;-0.196;2023-02-12T05:22:10;102794.95999999999;;;7.17;70.79
68145;BME280;55400;51.824;-0.196;2023-02-12T05:26:11;102787.56000000001;;;7.16;70.91
68145;BME280;55400;51.824;-0.196;2023-02-12T05:30:10;102787.56000000001;;;7.15;70.82
68145;BME280;55400;51.824;-0.196;2023-02-12T05:38:10;102788.29000000001;;;7.13;70.93
68145;BME280;55400;51.824;-0.196;2023-02-12T05:42:10;102781.58;;;7.16;70.67
68145;BME280;55400;51.824;-0.196;2023-02-12T05:46:10;102786.21;;;7.15;70.78
68145;BME280;55400;51.824;-0.196;2023-02-12T05:50:10;102786.21;;;7.13;70.78
68145;BME280;55400;51.824;-0.196;2023-02-12T05:54:10;102788.5;;;7.12;70.91
68145;BME280;55400;51.824;-0.196;2023-02-12T05:58:10;102788.5;;;7.10;71.11
68145;BME280;55400;51.824;-0.196;2023-02-12T06:02:10;102788.82;;;7.09;71.19
68145;BME280;55400;51.824;-0.196;2023-02-12T06:06:10;102788.16999999998;;;7.08;71.19
68145;BME280;55400;51.824;-0.196;2023-02-12T06:38:10;102779.09;;;7.07;71.09
68145;BME280;55400;51.824;-0.196;2023-02-12T06:46:11;102784.02;;;7.05;70.98
68145;BME280;55400;51.824;-0.196;2023-02-12T06:54:11;102773.39;;;7.06;71.08
68145;BME280;55400;51.824;-0.196;2023-02-12T06:58:10;102783.3;;;7.05;71.14
68145;BME280;55400;51.824;-0.196;2023-02-12T07:02:10;102780.18;;;7.04;71.21
68145;BME280;55400;51.824;-0.196;2023-02-12T07:10:10;102777.22000000002;;;7.03;71.33
68145;BME280;55400;51.824;-0.196;2023-02-12T07:22:10;102790.06;;;7.01;71.45
68145;BME280;55400;51.824;-0.196;2023-02-12T07:26:11;102785.61;;;7.00;71.64
68145;BME280;55400;51.824;-0.196;2023-02-12T07:34:10;102794.1;;;6.99;71.69
68145;BME280;55400;51.824;-0.196;2023-02-12T07:38:10;102797.64;;;6.98;71.75
68145;BME280;55400;51.824;-0.196;2023-02-12T07:42:10;102794.47;;;6.96;71.81
68145;BME280;55400;51.824;-0.196;2023-02-12T07:46:11;102794.47;;;6.94;71.97
68145;BME280;55400;51.824;-0.196;2023-02-12T07:50:10;102803.65;;;6.91;72.07
68145;BME280;55400;51.824;-0.196;2023-02-12T07:54:11;102797.17000000001;;;6.90;72.32
68145;BME280;55400;51.824;-0.196;2023-02-12T07:58:10;102797.61000000002;;;6.89;72.32
68145;BME280;55400;51.824;-0.196;2023-02-12T08:02:10;102797.45;;;6.90;72.44
68145;BME280;55400;51.824;-0.196;2023-02-12T08:06:11;102797.71;;;6.91;72.45
68145;BME280;55400;51.824;-0.196;2023-02-12T08:14:11;102797.8;;;6.90;72.41
68145;BME280;55400;51.824;-0.196;2023-02-12T08:18:10;102805.07;;;6.89;72.42
68145;BME280;55400;51.824;-0.196;2023-02-12T08:22:10;102804.5;;;6.88;72.40
68145;BME280;55400;51.824;-0.196;2023-02-12T08:30:11;102809.14;;;6.89;72.62
68145;BME280;55400;51.824;-0.196;2023-02-12T08:34:14;102810.5;;;6.91;72.64
68145;BME280;55400;51.824;-0.196;2023-02-12T08:42:11;102811.12000000001;;;6.92;72.61
68145;BME280;55400;51.824;-0.196;2023-02-12T08:50:11;102812.65000000001;;;6.93;72.71
68145;BME280;55400;51.824;-0.196;2023-02-12T08:54:11;102812.11;;;6.96;72.67
68145;BME280;55400;51.824;-0.196;2023-02-12T09:02:11;102818.90000000001;;;6.98;72.77
68145;BME280;55400;51.824;-0.196;2023-02-12T09:06:11;102818.81000000001;;;7.00;72.80
68145;BME280;55400;51.824;-0.196;2023-02-12T09:10:11;102818.81000000001;;;7.02;72.87
68145;BME280;55400;51.824;-0.196;2023-02-12T09:14:11;102822.68999999999;;;7.03;72.92
68145;BME280;55400;51.824;-0.196;2023-02-12T09:22:11;102825.54000000001;;;7.06;72.90
68145;BME280;55400;51.824;-0.196;2023-02-12T09:26:12;102825.54000000001;;;7.08;72.84
68145;BME280;55400;51.824;-0.196;2023-02-12T09:30:11;102820.56;;;7.11;72.77
68145;BME280;55400;51.824;-0.196;2023-02-12T09:34:11;102824.04;;;7.15;72.72
68145;BME280;55400;51.824;-0.196;2023-02-12T09:38:11;102824.04;;;7.17;72.68
68145;BME280;55400;51.824;-0.196;2023-02-12T09:42:14;102826.29;;;7.19;72.60
68145;BME280;55400;51.824;-0.196;2023-02-12T09:46:13;102826.29;;;7.24;72.60
68145;BME280;55400;51.824;-0.196;2023-02-12T09:50:16;102824.83;;;7.29;72.63
68145;BME280;55400;51.824;-0.196;2023-02-12T09:54:11;102825.21999999999;;;7.35;72.57
68145;BME280;55400;51.824;-0.196;2023-02-12T09:58:12;102826.11;;;7.40;72.43
68145;BME280;55400;51.824;-0.196;2023-02-12T10:02:11;102818.81000000001;;;7.44;72.46
68145;BME280;55400;51.824;-0.196;2023-02-12T10:06:13;102820.67;;;7.49;72.46
68145;BME280;55400;51.824;-0.196;2023-02-12T10:10:15;102820.19;;;7.54;72.27
68145;BME280;55400;51.824;-0.196;2023-02-12T10:14:16;102812.38;;;7.58;72.27
68145;BME280;55400;51.824;-0.196;2023-02-12T10:18:16;102813.95999999999;;;7.63;72.28
68145;BME280;55400;51.824;-0.196;2023-02-12T10:22:12;102813.95999999999;;;7.68;72.16
68145;BME280;55400;51.824;-0.196;2023-02-12T10:38:13;102817.19;;;7.70;72.65
68145;BME280;55400;51.824;-0.196;2023-02-12T10:42:11;102824.4;;;7.73;72.65
68145;BME280;55400;51.824;-0.196;2023-02-12T10:46:12;102825.23000000001;;;7.77;72.70
68145;BME280;55400;51.824;-0.196;2023-02-12T10:50:15;102825.23000000001;;;7.79;72.76
68145;BME280;55400;51.824;-0.196;2023-02-12T10:58:15;102826.6;;;7.81;73.04
68145;BME280;55400;51.824;-0.196;2023-02-12T11:06:12;102831.91999999998;;;7.78;73.19
68145;BME280;55400;51.824;-0.196;2023-02-12T11:14:15;102822.92;;;7.77;73.44
68145;BME280;55400;51.824;-0.196;2023-02-12T11:18:18;102820.84999999999;;;7.76;73.55
68145;BME280;55400;51.824;-0.196;2023-02-12T11:22:11;102820.58;;;7.74;73.82
68145;BME280;55400;51.824;-0.196;2023-02-12T11:34:13;102808.81;;;7.73;74.12
68145;BME280;55400;51.824;-0.196;2023-02-12T11:38:14;102804.92;;;7.72;74.15
68145;BME280;55400;51.824;-0.196;2023-02-12T11:42:14;102793.68;;;7.74;74.27
68145;BME280;55400;51.824;-0.196;2023-02-12T11:46:03;102793.68;;;7.74;74.27
68145;BME280;55400;51.824;-0.196;2023-02-12T11:46:11;102788.67;;;7.78;74.09
68145;BME280;55400;51.824;-0.196;2023-02-12T11:50:16;102790.38;;;7.81;74.09
68145;BME280;55400;51.824;-0.196;2023-02-12T11:54:14;102790.38;;;7.82;73.79
68145;BME280;55400;51.824;-0.196;2023-02-12T11:58:13;102785.67;;;7.80;73.85
68145;BME280;55400;51.824;-0.196;2023-02-12T12:02:14;102784.79999999999;;;7.76;73.59
68145;BME280;55400;51.824;-0.196;2023-02-12T12:06:15;102781.73999999999;;;7.74;73.59
68145;BME280;55400;51.824;-0.196;2023-02-12T12:10:12;102784.97;;;7.77;73.88
68145;BME280;55400;51.824;-0.196;2023-02-12T12:14:14;102776.64;;;7.80;73.88
68145;BME280;55400;51.824;-0.196;2023-02-12T12:18:15;102783.20000000001;;;7.82;73.49
68145;BME280;55400;51.824;-0.196;2023-02-12T12:22:13;102782.06999999999;;;7.80;73.49
68145;BME280;55400;51.824;-0.196;2023-02-12T12:26:13;102776.77;;;7.78;73.23
68145;BME280;55400;51.824;-0.196;2023-02-12T12:42:17;102771.49999999999;;;7.75;72.94
68145;BME280;55400;51.824;-0.196;2023-02-12T12:46:16;102755.31000000001;;;7.70;72.67
68145;BME280;55400;51.824;-0.196;2023-02-12T12:54:16;102757.32;;;7.69;72.73
68145;BME280;55400;51.824;-0.196;2023-02-12T13:02:17;102753.12;;;7.72;72.73
68145;BME280;55400;51.824;-0.196;2023-02-12T13:06:14;102753.12;;;7.77;72.82
68145;BME280;55400;51.824;-0.196;2023-02-12T13:10:14;102745.77999999998;;;7.82;72.63
68145;BME280;55400;51.824;-0.196;2023-02-12T13:14:18;102740.83;;;7.84;72.53
68145;BME280;55400;51.824;-0.196;2023-02-12T13:18:13;102740.83;;;7.83;72.53
68145;BME280;55400;51.824;-0.196;2023-02-12T13:22:12;102735.33;;;7.82;72.44
68145;BME280;55400;51.824;-0.196;2023-02-12T13:26:13;102734.84000000001;;;7.79;72.21
68145;BME280;55400;51.824;-0.196;2023-02-12T13:30:17;102734.84000000001;;;7.76;72.24
68145;BME280;55400;51.824;-0.196;2023-02-12T13:34:12;102726.53;;;7.75;72.20
68145;BME280;55400;51.824;-0.196;2023-02-12T13:38:14;102719.15;;;7.72;72.19
68145;BME280;55400;51.824;-0.196;2023-02-12T13:46:13;102720.63;;;7.75;72.13
68145;BME280;55400;51.824;-0.196;2023-02-12T13:50:15;102716.17000000001;;;7.78;72.19
68145;BME280;55400;51.824;-0.196;2023-02-12T13:54:14;102712.57;;;7.81;72.03
68145;BME280;55400;51.824;-0.196;2023-02-12T14:06:12;102707.45999999999;;;7.86;71.86
68145;BME280;55400;51.824;-0.196;2023-02-12T14:10:18;102692.31;;;7.88;72.05
68145;BME280;55400;51.824;-0.196;2023-02-12T14:18:21;102691.86;;;7.89;72.04
68145;BME280;55400;51.824;-0.196;2023-02-12T14:22:12;102689.33;;;7.90;72.19
68145;BME280;55400;51.824;-0.196;2023-02-12T14:26:12;102684.69;;;7.91;72.15
68145;BME280;55400;51.824;-0.196;2023-02-12T14:50:14;102670.95;;;7.92;72.08
68145;BME280;55400;51.824;-0.196;2023-02-12T14:54:12;102667.29000000001;;;7.91;72.16
68145;BME280;55400;51.824;-0.196;2023-02-12T14:58:15;102669.47;;;7.92;72.09
68145;BME280;55400;51.824;-0.196;2023-02-12T15:02:12;102669.47;;;7.91;72.09
68145;BME280;55400;51.824;-0.196;2023-02-12T15:06:13;102660.17;;;7.90;72.11
68145;BME280;55400;51.824;-0.196;2023-02-12T15:10:12;102655.18;;;7.92;72.12
68145;BME280;55400;51.824;-0.196;2023-02-12T15:22:16;102642.27;;;7.90;72.20
68145;BME280;55400;51.824;-0.196;2023-02-12T15:26:12;102634.27999999998;;;7.86;72.20
68145;BME280;55400;51.824;-0.196;2023-02-12T15:30:13;102628.86000000002;;;7.81;72.32
68145;BME280;55400;51.824;-0.196;2023-02-12T15:34:12;102628.50000000001;;;7.82;72.41
68145;BME280;55400;51.824;-0.196;2023-02-12T15:38:17;102631.49;;;7.83;72.51
68145;BME280;55400;51.824;-0.196;2023-02-12T15:46:14;102622.88;;;7.78;72.67
68145;BME280;55400;51.824;-0.196;2023-02-12T15:50:12;102627.42000000001;;;7.77;72.87
68145;BME280;55400;51.824;-0.196;2023-02-12T15:54:12;102621.12999999999;;;7.76;72.87
68145;BME280;55400;51.824;-0.196;2023-02-12T15:58:20;102621.83;;;7.77;72.89
68145;BME280;55400;51.824;-0.196;2023-02-12T16:06:12;102618.58;;;7.74;73.30
68145;BME280;55400;51.824;-0.196;2023-02-12T16:10:13;102618.58;;;7.73;73.30
68145;BME280;55400;51.824;-0.196;2023-02-12T16:14:16;102615.43999999999;;;7.70;73.61
68145;BME280;55400;51.824;-0.196;2023-02-12T16:18:21;102616.66;;;7.67;73.61
68145;BME280;55400;51.824;-0.196;2023-02-12T16:26:15;102614.22;;;7.68;73.87
68145;BME280;55400;51.824;-0.196;2023-02-12T16:42:13;102617.09000000001;;;8.03;74.34
68145;BME280;55400;51.824;-0.196;2023-02-12T16:46:12;102621.75;;;8.28;73.39
68145;BME280;55400;51.824;-0.196;2023-02-12T16:50:13;102617.92;;;8.47;73.39
68145;BME280;55400;51.824;-0.196;2023-02-12T16:58:12;102620.85999999999;;;8.66;72.39
68145;BME280;55400;51.824;-0.196;2023-02-12T17:02:13;102621.40999999999;;;8.71;72.13
68145;BME280;55400;51.824;-0.196;2023-02-12T17:06:12;102623.56;;;8.77;72.05
68145;BME280;55400;51.824;-0.196;2023-02-12T17:10:12;102620.25000000001;;;8.82;71.93
68145;BME280;55400;51.824;-0.196;2023-02-12T17:14:13;102617.04;;;8.84;71.80
68145;BME280;55400;51.824;-0.196;2023-02-12T17:18:12;102622.93999999999;;;8.83;71.76
68145;BME280;55400;51.824;-0.196;2023-02-12T17:22:15;102624.84999999999;;;8.80;71.80
68145;BME280;55400;51.824;-0.196;2023-02-12T17:26:12;102626.35;;;8.77;71.91
68145;BME280;55400;51.824;-0.196;2023-02-12T17:38:12;102639.98;;;8.73;72.20
68145;BME280;55400;51.824;-0.196;2023-02-12T17:42:12;102641.7;;;8.70;72.35
68145;BME280;55400;51.824;-0.196;2023-02-12T17:46:19;102639.22;;;8.64;72.40
68145;BME280;55400;51.824;-0.196;2023-02-12T17:50:13;102640.45000000001;;;8.63;72.17
68145;BME280;55400;51.824;-0.196;2023-02-12T17:54:12;102646.31;;;8.59;72.47
68145;BME280;55400;51.824;-0.196;2023-02-12T17:58:12;102650.01999999999;;;8.55;72.47
68145;BME280;55400;51.824;-0.196;2023-02-12T18:02:12;102654.69;;;8.52;72.75
68145;BME280;55400;51.824;-0.196;2023-02-12T18:06:13;102654.69;;;8.49;72.86
68145;BME280;55400;51.824;-0.196;2023-02-12T18:10:12;102659.41;;;8.48;73.03
68145;BME280;55400;51.824;-0.196;2023-02-12T18:14:12;102661.33;;;8.47;73.10
68145;BME280;55400;51.824;-0.196;2023-02-12T18:22:12;102661.95999999999;;;8.48;73.09
68145;BME280;55400;51.824;-0.196;2023-02-12T18:26:14;102666.37000000001;;;8.50;73.12
68145;BME280;55400;51.824;-0.196;2023-02-12T18:30:12;102666.37000000001;;;8.47;73.08
68145;BME280;55400;51.824;-0.196;2023-02-12T18:34:12;102670.01000000001;;;8.45;73.09
68145;BME280;55400;51.824;-0.196;2023-02-12T18:38:12;102667.74;;;8.43;73.20
68145;BME280;55400;51.824;-0.196;2023-02-12T18:42:12;102666.28;;;8.38;73.24
68145;BME280;55400;51.824;-0.196;2023-02-12T18:46:13;102665.41;;;8.37;73.25
68145;BME280;55400;51.824;-0.196;2023-02-12T18:50:12;102663.77;;;8.35;73.27
68145;BME280;55400;51.824;-0.196;2023-02-12T18:54:12;102668.57;;;8.33;73.32
68145;BME280;55400;51.824;-0.196;2023-02-12T18:58:12;102664.60999999999;;;8.29;73.49
68145;BME280;55400;51.824;-0.196;2023-02-12T19:02:12;102664.97;;;8.27;73.49
68145;BME280;55400;51.824;-0.196;2023-02-12T19:06:12;102666.76999999999;;;8.28;73.57
68145;BME280;55400;51.824;-0.196;2023-02-12T19:10:13;102659.39000000001;;;8.25;73.64
68145;BME280;55400;51.824;-0.196;2023-02-12T19:14:12;102663.57;;;8.24;73.77
68145;BME280;55400;51.824;-0.196;2023-02-12T19:18:12;102665.73000000001;;;8.22;73.86
68145;BME280;55400;51.824;-0.196;2023-02-12T19:22:12;102660.01000000001;;;8.17;73.95
68145;BME280;55400;51.824;-0.196;2023-02-12T19:26:13;102660.01000000001;;;8.14;74.14
68145;BME280;55400;51.824;-0.196;2023-02-12T19:30:13;102664.29000000001;;;8.11;74.27
68145;BME280;55400;51.824;-0.196;2023-02-12T19:34:14;102664.29000000001;;;8.07;74.37
68145;BME280;55400;51.824;-0.196;2023-02-12T19:38:12;102668.87;;;8.06;74.51
68145;BME280;55400;51.824;-0.196;2023-02-12T19:42:13;102663.01000000001;;;8.07;74.58
68145;BME280;55400;51.824;-0.196;2023-02-12T19:50:12;102663.38;;;8.02;74.72
68145;BME280;55400;51.824;-0.196;2023-02-12T19:54:13;102663.38;;;7.98;74.72
68145;BME280;55400;51.824;-0.196;2023-02-12T19:58:12;102659.39000000001;;;7.97;74.88
68145;BME280;55400;51.824;-0.196;2023-02-12T20:06:13;102647.35;;;7.95;74.91
68145;BME280;55400;51.824;-0.196;2023-02-12T20:10:12;102647.42000000001;;;7.90;75.12
68145;BME280;55400;51.824;-0.196;2023-02-12T20:14:13;102645.91;;;7.88;75.12
68145;BME280;55400;51.824;-0.196;2023-02-12T20:18:13;102645.91;;;7.83;75.24
68145;BME280;55400;51.824;-0.196;2023-02-12T20:26:13;102647.17000000001;;;7.84;75.40
68145;BME280;55400;51.824;-0.196;2023-02-12T20:30:13;102651.44;;;7.82;75.36
68145;BME280;55400;51.824;-0.196;2023-02-12T20:34:13;102661.04000000001;;;7.78;75.31
68145;BME280;55400;51.824;-0.196;2023-02-12T20:38:12;102657.91999999998;;;7.75;75.44
68145;BME280;55400;51.824;-0.196;2023-02-12T20:42:13;102654.79000000001;;;7.74;75.62
68145;BME280;55400;51.824;-0.196;2023-02-12T20:50:13;102650.07;;;7.70;75.66
68145;BME280;55400;51.824;-0.196;2023-02-12T20:54:12;102638.84000000001;;;7.66;75.77
68145;BME280;55400;51.824;-0.196;2023-02-12T21:06:13;102628.61;;;7.67;75.94
68145;BME280;55400;51.824;-0.196;2023-02-12T21:10:13;102628.61;;;7.69;75.89
68145;BME280;55400;51.824;-0.196;2023-02-12T21:14:13;102630.36;;;7.68;75.85
68145;BME280;55400;51.824;-0.196;2023-02-12T21:18:13;102630.8;;;7.66;75.84
68145;BME280;55400;51.824;-0.196;2023-02-12T21:22:13;102620.08;;;7.67;75.86
68145;BME280;55400;51.824;-0.196;2023-02-12T21:38:13;102614.1;;;7.63;75.54
68145;BME280;55400;51.824;-0.196;2023-02-12T21:42:13;102613.42;;;7.60;75.50
68145;BME280;55400;51.824;-0.196;2023-02-12T21:46:13;102618.44;;;7.57;75.43
68145;BME280;55400;51.824;-0.196;2023-02-12T21:50:13;102617.75;;;7.54;75.13
68145;BME280;55400;51.824;-0.196;2023-02-12T21:58:13;102613.27000000002;;;7.52;74.90
68145;BME280;55400;51.824;-0.196;2023-02-12T22:02:13;102615.16999999998;;;7.54;74.92
68145;BME280;55400;51.824;-0.196;2023-02-12T22:06:13;102622.68;;;7.52;74.59
68145;BME280;55400;51.824;-0.196;2023-02-12T22:10:13;102621.0;;;7.48;74.59
68145;BME280;55400;51.824;-0.196;2023-02-12T22:22:13;102609.94;;;7.45;74.25
68145;BME280;55400;51.824;-0.196;2023-02-12T22:26:13;102608.14;;;7.40;73.88
68145;BME280;55400;51.824;-0.196;2023-02-12T22:34:13;102607.15;;;7.38;73.88
68145;BME280;55400;51.824;-0.196;2023-02-12T22:38:13;102612.06999999999;;;7.36;74.14
68145;BME280;55400;51.824;-0.196;2023-02-12T22:42:13;102608.87;;;7.35;74.34
68145;BME280;55400;51.824;-0.196;2023-02-12T22:46:13;102610.18999999999;;;7.33;74.48
68145;BME280;55400;51.824;-0.196;2023-02-12T22:54:14;102603.89;;;7.32;74.55
68145;BME280;55400;51.824;-0.196;2023-02-12T22:58:13;102603.08;;;7.30;74.55
68145;BME280;55400;51.824;-0.196;2023-02-12T23:02:13;102603.46999999999;;;7.28;74.42
68145;BME280;55400;51.824;-0.196;2023-02-12T23:06:14;102606.01999999999;;;7.26;74.42
68145;BME280;55400;51.824;-0.196;2023-02-12T23:10:13;102606.98;;;7.22;74.42
68145;BME280;55400;51.824;-0.196;2023-02-12T23:14:13;102605.2;;;7.19;74.29
68145;BME280;55400;51.824;-0.196;2023-02-12T23:22:13;102605.0;;;7.17;74.00
68145;BME280;55400;51.824;-0.196;2023-02-12T23:26:13;102605.0;;;7.12;74.00
68145;BME280;55400;51.824;-0.196;2023-02-12T23:30:13;102605.7;;;7.08;73.86
68145;BME280;55400;51.824;-0.196;2023-02-12T23:34:13;102606.70999999999;;;7.02;73.81
68145;BME280;55400;51.824;-0.196;2023-02-12T23:38:13;102606.70999999999;;;6.97;73.39
68145;BME280;55400;51.824;-0.196;2023-02-12T23:42:13;102612.28000000001;;;6.91;73.18
68145;BME280;55400;51.824;-0.196;2023-02-12T23:46:13;102612.21;;;6.90;73.18
68145;BME280;55400;51.824;-0.196;2023-02-12T23:50:13;102612.21;;;6.86;73.12
68145;BME280;55400;51.824;-0.196;2023-02-12T23:58:13;102611.87999999999;;;6.84;73.03
